createdAt,value
2022-10-10T06:26:36.080Z,6.41
2022-10-10T06:29:13.484Z,6.46
2022-10-10T06:31:50.225Z,6.52
2022-10-10T06:34:27.187Z,6.59
2022-10-10T06:37:03.869Z,6.65
2022-10-10T06:39:40.827Z,6.72
2022-10-10T06:42:20.186Z,6.79
2022-10-10T06:45:00.875Z,6.89
2022-10-10T06:47:37.806Z,6.90
2022-10-10T06:50:14.821Z,6.97
2022-10-10T06:52:51.909Z,7.04
2022-10-10T06:55:29.559Z,7.11
2022-10-10T06:58:08.969Z,7.18
2022-10-10T07:00:51.641Z,7.24
2022-10-10T07:03:28.926Z,7.32
2022-10-10T07:06:06.902Z,7.38
2022-10-10T07:08:44.496Z,7.47
2022-10-10T07:11:21.609Z,7.55
2022-10-10T07:14:01.075Z,7.63
2022-10-10T07:16:38.217Z,7.72
2022-10-10T07:19:15.008Z,7.81
2022-10-10T07:21:52.073Z,7.88
2022-10-10T07:24:29.171Z,7.95
2022-10-10T07:27:08.898Z,8.02
2022-10-10T07:29:48.662Z,8.10
2022-10-10T07:32:25.994Z,8.16
2022-10-10T07:35:02.882Z,8.24
2022-10-10T07:37:40.052Z,8.32
2022-10-10T07:40:17.072Z,8.40
2022-10-10T07:42:54.493Z,8.47
2022-10-10T07:45:34.393Z,8.53
2022-10-10T07:48:11.690Z,8.56
2022-10-10T07:50:49.140Z,8.66
2022-10-10T07:53:26.358Z,8.73
2022-10-10T07:56:03.155Z,8.80
2022-10-10T07:58:40.417Z,8.86
2022-10-10T08:01:20.150Z,8.95
2022-10-10T08:03:59.165Z,9.00
2022-10-10T08:06:35.986Z,9.07
2022-10-10T08:09:13.630Z,9.11
2022-10-10T08:11:50.607Z,9.17
2022-10-10T08:14:27.801Z,9.22
2022-10-10T08:17:07.567Z,9.29
2022-10-10T08:19:44.966Z,9.34
2022-10-10T08:22:21.815Z,9.35
2022-10-10T08:24:59.058Z,9.40
2022-10-10T08:27:35.828Z,9.44
2022-10-10T08:30:14.544Z,9.52
2022-10-10T08:32:54.285Z,9.61
2022-10-10T08:35:31.731Z,9.66
2022-10-10T08:38:09.323Z,9.74
2022-10-10T08:40:50.184Z,9.88
2022-10-10T08:43:35.862Z,9.98
2022-10-10T08:46:21.838Z,10.04
2022-10-10T08:49:13.954Z,10.15
2022-10-10T08:52:04.415Z,10.28
2022-10-10T08:54:43.153Z,10.45
2022-10-10T08:57:29.525Z,10.94
2022-10-10T09:00:11.278Z,11.58
2022-10-10T09:02:57.076Z,12.26
2022-10-10T09:05:56.337Z,13.00
2022-10-10T09:08:50.186Z,13.93
2022-10-10T09:11:47.096Z,14.71
2022-10-10T09:14:38.716Z,15.50
2022-10-10T09:17:30.222Z,15.88
2022-10-10T09:20:21.886Z,16.07
2022-10-10T09:23:06.528Z,16.32
2022-10-10T09:25:51.015Z,16.41
2022-10-10T09:28:42.044Z,16.67
2022-10-10T09:31:24.757Z,16.82
2022-10-10T09:34:07.477Z,16.83
2022-10-10T09:36:45.076Z,16.90
2022-10-10T09:39:35.467Z,17.12
2022-10-10T09:42:17.977Z,17.34
2022-10-10T09:44:55.487Z,17.40
2022-10-10T09:47:32.957Z,17.39
2022-10-10T09:50:10.631Z,17.64
2022-10-10T09:52:49.634Z,17.91
2022-10-10T09:55:36.818Z,17.97
2022-10-10T09:58:26.627Z,18.44
2022-10-10T10:01:20.901Z,18.51
2022-10-10T10:04:29.227Z,18.57
2022-10-10T10:07:23.488Z,18.56
2022-10-10T10:10:05.429Z,18.52
2022-10-10T10:12:47.698Z,18.47
2022-10-10T10:15:27.508Z,18.17
2022-10-10T10:18:27.928Z,18.15
2022-10-10T10:21:23.808Z,17.96
2022-10-10T10:24:03.368Z,18.22
2022-10-10T10:26:50.343Z,17.98
2022-10-10T10:29:37.672Z,18.12
2022-10-10T10:32:26.722Z,18.12
2022-10-10T10:35:31.693Z,18.44
2022-10-10T10:38:37.637Z,18.37
2022-10-10T10:41:24.477Z,18.43
2022-10-10T10:44:21.768Z,18.31
2022-10-10T10:47:20.612Z,18.29
2022-10-10T10:50:18.811Z,18.30
2022-10-10T10:53:03.370Z,18.44
2022-10-10T10:55:48.891Z,18.47
2022-10-10T11:02:01.635Z,18.92
2022-10-10T11:05:24.834Z,19.11
2022-10-10T11:08:36.914Z,19.26
2022-10-10T11:11:43.922Z,18.96
2022-10-10T11:14:43.723Z,19.20
2022-10-10T11:17:27.103Z,19.23
2022-10-10T11:20:18.581Z,19.42
2022-10-10T11:23:07.994Z,19.49
2022-10-10T11:25:53.292Z,19.47
2022-10-10T11:28:36.259Z,19.44
2022-10-10T11:31:20.733Z,19.62
2022-10-10T11:34:03.074Z,19.51
2022-10-10T11:36:47.643Z,19.48
2022-10-10T11:39:32.534Z,19.63
2022-10-10T11:42:18.553Z,19.68
2022-10-10T11:45:02.035Z,19.57
2022-10-10T11:47:43.784Z,19.46
2022-10-10T11:50:27.091Z,19.25
2022-10-10T11:53:16.416Z,19.61
2022-10-10T11:56:02.830Z,19.80
2022-10-10T11:58:43.855Z,19.72
2022-10-10T12:01:27.111Z,19.61
2022-10-10T12:04:04.640Z,19.76
2022-10-10T12:06:47.894Z,19.77
2022-10-10T12:09:34.519Z,19.78
2022-10-10T12:12:17.415Z,19.74
2022-10-10T12:14:57.143Z,19.80
2022-10-10T12:17:39.424Z,19.75
2022-10-10T12:20:37.326Z,19.70
2022-10-10T12:23:28.362Z,19.60
2022-10-10T12:26:20.064Z,19.42
2022-10-10T12:29:09.204Z,19.29
2022-10-10T12:31:46.895Z,19.16
2022-10-10T12:34:47.116Z,19.12
2022-10-10T12:37:29.291Z,18.97
2022-10-10T12:40:26.004Z,19.05
2022-10-10T12:43:27.236Z,19.18
2022-10-10T12:46:37.888Z,19.22
2022-10-10T12:49:25.178Z,19.25
2022-10-10T12:52:24.145Z,19.27
2022-10-10T12:55:10.763Z,19.28
2022-10-10T12:57:49.914Z,19.31
2022-10-10T13:00:39.092Z,19.41
2022-10-10T13:03:22.023Z,19.44
2022-10-10T13:06:01.854Z,19.37
2022-10-10T13:08:40.534Z,19.21
2022-10-10T13:11:19.193Z,19.19
2022-10-10T13:13:59.215Z,19.03
2022-10-10T13:16:49.293Z,18.91
2022-10-10T13:19:28.798Z,18.97
2022-10-10T13:22:06.166Z,18.81
2022-10-10T13:24:45.856Z,18.92
2022-10-10T13:27:26.022Z,18.91
2022-10-10T13:30:03.283Z,18.92
2022-10-10T13:32:43.763Z,18.94
2022-10-10T13:35:25.133Z,18.80
2022-10-10T13:38:05.013Z,18.81
2022-10-10T13:40:44.773Z,18.81
2022-10-10T13:43:23.375Z,18.79
2022-10-10T13:46:01.986Z,18.60
2022-10-10T13:48:45.302Z,18.57
2022-10-10T13:51:22.284Z,18.44
2022-10-10T13:53:59.543Z,18.28
2022-10-10T13:56:43.514Z,18.23
2022-10-10T13:59:22.002Z,18.10
2022-10-10T14:02:04.719Z,17.95
2022-10-10T14:04:51.333Z,17.95
2022-10-10T14:07:30.865Z,17.94
2022-10-10T14:10:17.733Z,17.97
2022-10-10T14:12:58.109Z,17.96
2022-10-10T14:15:40.873Z,17.95
2022-10-10T14:18:24.749Z,17.96
2022-10-10T14:21:05.137Z,17.97
2022-10-10T14:23:43.064Z,17.99
2022-10-10T14:26:23.014Z,17.97
2022-10-10T14:29:00.127Z,17.95
2022-10-10T14:31:37.326Z,17.93
2022-10-10T14:34:15.098Z,17.86
2022-10-10T14:36:54.981Z,17.81
2022-10-10T14:39:31.793Z,17.76
2022-10-10T14:42:13.209Z,17.76
2022-10-10T14:44:50.322Z,17.66
2022-10-10T14:47:28.961Z,17.61
2022-10-10T14:50:05.743Z,17.58
2022-10-10T14:52:45.654Z,17.52
2022-10-10T14:55:22.754Z,17.51
2022-10-10T14:58:00.012Z,17.48
2022-10-10T15:00:37.293Z,17.35
2022-10-10T15:03:15.142Z,17.24
2022-10-10T15:05:52.765Z,17.11
2022-10-10T15:08:32.705Z,17.03
2022-10-10T15:11:09.813Z,16.83
2022-10-10T15:13:46.984Z,16.64
2022-10-10T15:16:23.863Z,16.54
2022-10-10T15:19:01.324Z,16.43
2022-10-10T15:21:38.213Z,16.26
2022-10-10T15:24:17.914Z,16.12
2022-10-10T15:26:54.682Z,16.03
2022-10-10T15:29:32.083Z,15.86
2022-10-10T15:32:10.055Z,15.78
2022-10-10T15:34:47.834Z,15.66
2022-10-10T15:37:30.005Z,15.55
2022-10-10T15:40:11.980Z,15.53
2022-10-10T15:42:50.493Z,15.41
2022-10-10T15:45:54.404Z,15.35
2022-10-10T15:48:25.395Z,15.28
2022-10-10T15:51:03.672Z,15.23
2022-10-10T15:53:41.383Z,15.13
2022-10-10T15:56:23.693Z,15.11
2022-10-10T15:59:03.460Z,15.02
2022-10-10T16:01:41.696Z,14.97
2022-10-10T16:04:20.483Z,14.92
2022-10-10T16:09:56.244Z,14.80
2022-10-10T16:12:37.431Z,14.71
2022-10-10T16:15:15.606Z,14.66
2022-10-10T16:17:53.603Z,14.60
2022-10-10T16:20:33.683Z,14.58
2022-10-10T16:23:11.993Z,14.52
2022-10-10T16:25:49.365Z,14.49
2022-10-10T16:28:30.640Z,14.42
2022-10-10T16:31:10.295Z,14.40
2022-10-10T16:33:51.552Z,14.38
2022-10-10T16:36:31.461Z,14.32
2022-10-10T16:39:13.593Z,14.29
2022-10-10T16:41:51.146Z,14.25
2022-10-10T16:44:31.173Z,14.23
2022-10-10T16:47:09.289Z,14.15
2022-10-10T16:49:46.373Z,14.11
2022-10-10T16:52:23.249Z,14.11
2022-10-10T16:55:01.733Z,14.08
2022-10-10T16:57:39.613Z,14.05
2022-10-10T17:00:21.155Z,14.05
2022-10-10T17:02:59.005Z,14.00
2022-10-10T17:05:38.176Z,13.99
2022-10-10T17:08:15.753Z,13.97
2022-10-10T17:10:54.039Z,13.91
2022-10-10T17:13:32.341Z,13.89
2022-10-10T17:19:15.452Z,13.84
2022-10-10T17:21:53.825Z,13.83
2022-10-10T17:24:32.765Z,13.81
2022-10-10T17:27:11.297Z,13.80
2022-10-10T17:29:49.325Z,13.76
2022-10-10T17:32:31.287Z,13.76
2022-10-10T17:35:10.828Z,13.73
2022-10-10T17:37:48.495Z,13.71
2022-10-10T17:40:26.364Z,13.72
2022-10-10T17:43:04.776Z,13.67
2022-10-10T17:45:42.605Z,13.66
2022-10-10T17:48:22.287Z,13.67
2022-10-10T17:50:59.297Z,13.61
2022-10-10T17:53:36.448Z,13.60
2022-10-10T17:56:16.861Z,13.57
2022-10-10T17:58:54.556Z,13.55
2022-10-10T18:01:32.575Z,13.53
2022-10-10T18:04:12.726Z,13.51
2022-10-10T18:06:49.625Z,13.45
2022-10-10T18:09:27.009Z,13.44
2022-10-10T18:12:04.086Z,13.44
2022-10-10T18:14:41.523Z,13.41
2022-10-10T18:17:18.507Z,13.37
2022-10-10T18:19:58.635Z,13.34
2022-10-10T18:22:35.524Z,13.30
2022-10-10T18:25:14.086Z,13.29
2022-10-10T18:27:51.893Z,13.21
2022-10-10T18:30:30.646Z,13.24
2022-10-10T18:33:08.096Z,13.19
2022-10-10T18:35:48.157Z,13.21
2022-10-10T18:38:25.129Z,13.16
2022-10-10T18:41:10.336Z,13.14
2022-10-10T18:43:56.183Z,13.11
2022-10-10T18:46:38.137Z,13.08
2022-10-10T18:49:17.157Z,13.06
2022-10-10T18:51:57.411Z,13.04
2022-10-10T18:54:37.824Z,12.98
2022-10-10T18:57:18.828Z,12.98
2022-10-10T18:59:59.482Z,12.96
2022-10-10T19:02:36.866Z,12.93
2022-10-10T19:05:13.939Z,12.89
2022-10-10T19:07:53.818Z,12.87
2022-10-10T19:10:31.067Z,12.82
2022-10-10T19:13:08.374Z,12.83
2022-10-10T19:15:45.196Z,12.83
2022-10-10T19:18:24.643Z,12.80
2022-10-10T19:21:03.721Z,12.81
2022-10-10T19:23:44.485Z,12.80
2022-10-10T19:26:23.079Z,12.79
2022-10-10T19:29:05.659Z,12.76
2022-10-10T19:31:45.176Z,12.77
2022-10-10T19:34:22.807Z,12.76
2022-10-10T19:37:00.035Z,12.75
2022-10-10T19:39:39.966Z,12.74
2022-10-10T19:42:16.745Z,12.71
2022-10-10T19:44:54.015Z,12.73
2022-10-10T19:47:30.950Z,12.70
2022-10-10T19:50:09.207Z,12.71
